ADDS METAR Data INFO
IDs: Format: Raw Decoded Include TAF

Data at: 1320 UTC 11 Dec 2017

KI35 111315Z AUTO 00000KT 10SM CLR M03/M05 A3011 RMK AO1
KI35 111255Z AUTO 00000KT 10SM CLR M03/M05 A3011 RMK AO1
KI35 111235Z AUTO 00000KT 10SM CLR M03/M05 A3012 RMK AO1
KI35 111215Z AUTO 00000KT 10SM CLR M03/M05 A3012 RMK AO1
KI35 111155Z AUTO 00000KT 10SM CLR M02/M05 A3011 RMK AO1
KI35 111135Z AUTO 00000KT 10SM CLR M03/M06 A3011 RMK AO1
KI35 111115Z AUTO 00000KT 10SM CLR M03/M05 A3011 RMK AO1
KI35 111055Z AUTO 00000KT 10SM CLR M03/M05 A3011 RMK AO1
KI35 111035Z AUTO 00000KT 10SM CLR M02/M05 A3011 RMK AO1
KI35 111015Z AUTO 00000KT 10SM CLR M03/M06 A3011 RMK AO1
KI35 110955Z AUTO 00000KT 10SM CLR M02/M06 A3012 RMK AO1
KI35 110935Z AUTO 00000KT 10SM CLR M02/M06 A3012 RMK AO1
KI35 110915Z AUTO 00000KT 10SM CLR M02/M06 A3013 RMK AO1
KI35 110855Z AUTO 00000KT 10SM CLR M02/M06 A3013 RMK AO1
KI35 110835Z AUTO 00000KT 10SM CLR M02/M06 A3013 RMK AO1
KI35 110815Z AUTO 00000KT 10SM CLR M02/M06 A3013 RMK AO1
KI35 110755Z AUTO 00000KT 10SM CLR M01/M05 A3013 RMK AO1
KI35 110735Z AUTO 00000KT 10SM CLR M01/M06 A3013 RMK AO1
KI35 110715Z AUTO 00000KT 10SM CLR M01/M06 A3012 RMK AO1
KI35 110655Z AUTO 00000KT 10SM CLR M01/M06 A3013 RMK AO1
KI35 110635Z AUTO 00000KT 10SM CLR M01/M06 A3012 RMK AO1
KI35 110615Z AUTO 00000KT 10SM CLR 00/M06 A3013 RMK AO1
KI35 110555Z AUTO 00000KT 10SM CLR M01/M06 A3013 RMK AO1
KI35 110535Z AUTO 00000KT 10SM CLR 00/M06 A3014 RMK AO1
KI35 110515Z AUTO 00000KT 10SM CLR M01/M06 A3014 RMK AO1
KI35 110455Z AUTO 00000KT 10SM CLR 00/M06 A3014 RMK AO1
KI35 110435Z AUTO 00000KT 10SM CLR M01/M06 A3014 RMK AO1
KI35 110415Z AUTO 00000KT 10SM CLR M01/M06 A3014 RMK AO1
KI35 110355Z AUTO 00000KT 10SM CLR 00/M06 A3014 RMK AO1
KI35 110335Z AUTO 00000KT 10SM SCT110 M01/M06 A3014 RMK AO1
KI35 110315Z AUTO 00000KT 10SM SCT110 M01/M06 A3014 RMK AO1
KI35 110255Z AUTO 00000KT 10SM CLR 00/M06 A3014 RMK AO1
KI35 110235Z AUTO 00000KT 10SM CLR 00/M07 A3013 RMK AO1
KI35 110215Z AUTO 00000KT 10SM CLR 00/M06 A3013 RMK AO1
KI35 110155Z AUTO 00000KT 10SM CLR 00/M07 A3012 RMK AO1
KI35 110135Z AUTO 00000KT 10SM CLR 01/M07 A3011 RMK AO1
KI35 110115Z AUTO 00000KT 10SM CLR 01/M07 A3010 RMK AO1
KI35 110055Z AUTO 00000KT 10SM CLR 01/M07 A3009 RMK AO1
KI35 110035Z AUTO 00000KT 10SM CLR 01/M07 A3009 RMK AO1
KI35 110015Z AUTO 00000KT 10SM CLR 01/M08 A3009 RMK AO1
KI35 102355Z AUTO 00000KT 10SM CLR 01/M08 A3009 RMK AO1
KI35 102335Z AUTO 00000KT 10SM CLR 01/M08 A3007 RMK AO1
KI35 102315Z AUTO 00000KT 10SM CLR 02/M08 A3007 RMK AO1
KI35 102255Z AUTO 00000KT 10SM CLR 02/M09 A3007 RMK AO1
KI35 102235Z AUTO 00000KT 10SM CLR 02/M10 A3008 RMK AO1
KI35 102215Z AUTO 13004KT 10SM CLR 03/M10 A3008 RMK AO1
KI35 102155Z AUTO 00000KT 10SM CLR 03/M10 A3008 RMK AO1
KI35 102135Z AUTO 14004KT 10SM CLR 04/M10 A3008 RMK AO1
KI35 102115Z AUTO 20004KT 10SM CLR 04/M10 A3009 RMK AO1
KI35 102055Z AUTO 00000KT 10SM CLR 05/M11 A3008 RMK AO1
KI35 102035Z AUTO 19004KT 10SM CLR 05/M11 A3009 RMK AO1
KI35 102015Z AUTO 00000KT 10SM CLR 05/M11 A3009 RMK AO1
KI35 101955Z AUTO 00000KT 10SM CLR 05/M11 A3009 RMK AO1
KI35 101935Z AUTO 21004KT 10SM CLR 04/M10 A3009 RMK AO1
KI35 101915Z AUTO 00000KT 10SM CLR 04/M10 A3010 RMK AO1
KI35 101855Z AUTO 23003KT 10SM CLR 03/M10 A3011 RMK AO1
KI35 101835Z AUTO 00000KT 10SM CLR 03/M09 A3012 RMK AO1
KI35 101815Z AUTO 00000KT 10SM CLR 02/M08 A3013 RMK AO1
KI35 101755Z AUTO 00000KT 10SM CLR 02/M08 A3014 RMK AO1
KI35 101735Z AUTO 22003KT 10SM CLR 02/M07 A3015 RMK AO1
KI35 101715Z AUTO 16003KT 10SM CLR 01/M08 A3016 RMK AO1
KI35 101655Z AUTO 18004KT 10SM CLR 01/M08 A3017 RMK AO1
KI35 101635Z AUTO 21003KT 10SM CLR 01/M08 A3018 RMK AO1
KI35 101615Z AUTO 00000KT 10SM CLR 00/M08 A3018 RMK AO1
KI35 101555Z AUTO 00000KT 10SM CLR 00/M08 A3019 RMK AO1
KI35 101535Z AUTO 00000KT 10SM CLR 00/M08 A3020 RMK AO1
KI35 101515Z AUTO 00000KT 10SM CLR M01/M08 A3021 RMK AO1
KI35 101455Z AUTO 00000KT 10SM CLR M01/M08 A3021 RMK AO1
KI35 101435Z AUTO 00000KT 10SM CLR M01/M08 A3021 RMK AO1
KI35 101415Z AUTO 00000KT 10SM CLR M02/M08 A3020 RMK AO1
KI35 101355Z AUTO 00000KT 10SM CLR M03/M08 A3020 RMK AO1
KI35 101335Z AUTO 00000KT 10SM CLR M03/M08 A3019 RMK AO1
KI35 101315Z AUTO 23003KT 10SM CLR M03/M08 A3019 RMK AO1
KI35 101255Z AUTO 00000KT 10SM SCT032 M03/M08 A3018 RMK AO1
KI35 101235Z AUTO 23005KT 10SM OVC032 M02/M08 A3018 RMK AO1
KI35 101215Z AUTO 23005KT 10SM OVC032 M02/M07 A3017 RMK AO1
KI35 101155Z AUTO 23004KT 10SM OVC032 M02/M07 A3017 RMK AO1
KI35 101135Z AUTO 24005KT 10SM OVC034 M02/M07 A3016 RMK AO1
KI35 101115Z AUTO 24004KT 10SM OVC034 M02/M07 A3015 RMK AO1
KI35 101055Z AUTO 22003KT 10SM OVC034 M02/M07 A3014 RMK AO1
KI35 101035Z AUTO 24005KT 10SM OVC036 M02/M07 A3014 RMK AO1
KI35 101015Z AUTO 00000KT 10SM OVC038 M02/M07 A3013 RMK AO1
KI35 100955Z AUTO 22006KT 10SM SCT026 OVC038 M02/M07 A3013 RMK AO1
KI35 100935Z AUTO 22004KT 10SM SCT026 OVC038 M02/M07 A3013 RMK AO1
KI35 100915Z AUTO 21003KT 10SM SCT027 OVC038 M02/M07 A3014 RMK AO1
KI35 100855Z AUTO 23003KT 10SM SCT027 OVC038 M02/M07 A3014 RMK AO1
KI35 100835Z AUTO 00000KT 10SM OVC038 M02/M07 A3012 RMK AO1
KI35 100815Z AUTO 21003KT 10SM SCT029 OVC038 M02/M07 A3012 RMK AO1
KI35 100755Z AUTO 24004KT 10SM SCT029 OVC038 M02/M07 A3012 RMK AO1
KI35 100735Z AUTO 23008KT 10SM OVC033 M02/M07 A3011 RMK AO1
KI35 100715Z AUTO 22005KT 10SM OVC031 M02/M07 A3011 RMK AO1
KI35 100655Z AUTO 23006KT 10SM OVC029 M02/M07 A3010 RMK AO1
KI35 100635Z AUTO 22005KT 10SM OVC031 M02/M07 A3010 RMK AO1
KI35 100615Z AUTO 23005G14KT 10SM SCT029 OVC037 M02/M07 A3010 RMK AO1
KI35 100555Z AUTO 24011G18KT 10SM OVC041 M02/M07 A3010 RMK AO1
KI35 100535Z AUTO 23009G17KT 10SM SCT029 BKN037 OVC045 M02/M07 A3009 RMK AO1
KI35 100515Z AUTO 23009G16KT 190V250 10SM SCT026 OVC035 M01/M07 A3009 RMK AO1
KI35 100455Z AUTO 23013G17KT 10SM BKN026 OVC033 M01/M06 A3008 RMK AO1
KI35 100435Z AUTO 23006G16KT 10SM SCT028 OVC036 M01/M06 A3006 RMK AO1
KI35 100410Z AUTO 23010G16KT 10SM SCT018 BKN026 OVC049 M01/M06 A3006 RMK AO1
KI35 100355Z AUTO 25012G25KT 7SM SCT019 OVC028 M01/M05 A3005 RMK AO1
KI35 100335Z AUTO 23006KT 5SM SCT011 BKN019 OVC031 M02/M03 A3004 RMK AO1
KI35 100315Z AUTO 23003KT 5SM OVC017 M02/M03 A3003 RMK AO1
KI35 100255Z AUTO 21004KT 4SM BKN019 OVC023 M01/M03 A3003 RMK AO1
KI35 100235Z AUTO 20005KT 7SM OVC021 M01/M03 A3002 RMK AO1
KI35 100215Z AUTO 22003KT 5SM OVC021 M01/M04 A3002 RMK AO1
KI35 100155Z AUTO 23003KT 10SM OVC021 M01/M04 A3001 RMK AO1
KI35 100135Z AUTO 22006KT 7SM OVC023 M01/M04 A3001 RMK AO1